This is the latest recevied weather packets stored in our database for station/object VU3ZAG-WX. If no packets are shown the sender has not sent any weather packets the latest 10 day(s).
| Time | Temp. | Humidity | Pressure | Rain* | Wind** | Luminosity | Snow |
|---|---|---|---|---|---|---|---|
| 1777349991 | 36.11° C | 57% | 1008.9 hPa | - | - | - | - |
| 1777349386 | 36.11° C | 55% | 1009 hPa | - | - | - | - |
| 1777348781 | 36.11° C | 57% | 1008.9 hPa | - | - | - | - |
| 1777348175 | 36.11° C | 51% | 1008.9 hPa | - | - | - | - |
| 1777347570 | 35° C | 58% | 1008.9 hPa | - | - | - | - |
| 1777346964 | 34.44° C | 58% | 1008.8 hPa | - | - | - | - |
| 1777346360 | 34.44° C | 61% | 1008.7 hPa | - | - | - | - |
| 1777345754 | 33.89° C | 61% | 1008.6 hPa | - | - | - | - |
| 1777345149 | 33.89° C | 60% | 1008.5 hPa | - | - | - | - |
| 1777344543 | 33.89° C | 62% | 1008.4 hPa | - | - | - | - |
| 1777343938 | 33.33° C | 62% | 1008.3 hPa | - | - | - | - |
| 1777343332 | 33.33° C | 64% | 1008.2 hPa | - | - | - | - |
| 1777342727 | 33.33° C | 65% | 1008.1 hPa | - | - | - | - |
| 1777342122 | 33.89° C | 62% | 1007.9 hPa | - | - | - | - |
| 1777341516 | 33.33° C | 65% | 1007.8 hPa | - | - | - | - |
| 1777340911 | 33.33° C | 63% | 1007.7 hPa | - | - | - | - |
| 1777340306 | 32.78° C | 69% | 1007.5 hPa | - | - | - | - |
| 1777339700 | 33.33° C | 68% | 1007.2 hPa | - | - | - | - |
| 1777339095 | 33.33° C | 68% | 1007 hPa | - | - | - | - |
| 1777338490 | 33.33° C | 68% | 1007 hPa | - | - | - | - |
| 1777337885 | 33.33° C | 68% | 1007 hPa | - | - | - | - |
| 1777337281 | 33.33° C | 68% | 1007 hPa | - | - | - | - |
| 1777336676 | 33.33° C | 68% | 1007 hPa | - | - | - | - |
| 1777336071 | 33.33° C | 68% | 1007 hPa | - | - | - | - |
| 1777335465 | 33.33° C | 68% | 1007 hPa | - | - | - | - |
* Rain since midnight (hover to see other rain measurements)
** Current wind speed in m/s (hover to see current wind gust speed)